Time;durP1;ratioP1;P1;durP2;ratioP2;P2;SDS_P1;SDS_P2;PMS_P1;PMS_P2;Temp;Humidity;BMP_temperature;BMP_pressure;BME280_temperature;BME280_humidity;BME280_pressure;Samples;Min_cycle;Max_cycle;Signal;HPM_P1;HPM_P2
2022/01/09 00:04:41;;;;;;;20.13;4.33;;;;;5.10;98642.00;;;;9902827;29;20215;-82
2022/01/09 00:09:44;;;;;;;14.23;3.37;;;;;5.10;98652.00;;;;9903010;29;20790;-81
2022/01/09 00:14:46;;;;;;;21.70;4.60;;;;;5.10;98667.00;;;;9887935;29;20202;-82
2022/01/09 00:19:48;;;;;;;21.63;3.57;;;;;5.10;98680.00;;;;9887460;29;20687;-82
2022/01/09 00:24:50;;;;;;;23.27;4.50;;;;;5.20;98655.00;;;;9902319;29;20215;-81
2022/01/09 00:29:52;;;;;;;21.83;4.03;;;;;5.20;98685.00;;;;9887662;29;20206;-81
2022/01/09 00:34:54;;;;;;;20.27;4.83;;;;;5.30;98686.00;;;;9916869;29;20660;-80
2022/01/09 00:39:56;;;;;;;20.77;4.10;;;;;5.30;98687.00;;;;9916984;29;20206;-81
2022/01/09 00:44:58;;;;;;;27.97;4.87;;;;;5.40;98710.00;;;;9909820;29;20232;-81
2022/01/09 00:50:00;;;;;;;31.60;5.87;;;;;5.40;98723.00;;;;9909442;29;20469;-80
2022/01/09 00:55:04;;;;;;;24.30;5.90;;;;;5.40;98729.00;;;;9893659;29;20199;-80
2022/01/09 01:00:07;;;;;;;21.93;5.77;;;;;5.50;98719.00;;;;9895226;29;20232;-81
2022/01/09 01:05:10;;;;;;;24.00;5.10;;;;;5.50;98737.00;;;;9908549;29;20227;-81
2022/01/09 01:10:13;;;;;;;25.73;5.27;;;;;5.60;98750.00;;;;9907761;29;20266;-81
2022/01/09 01:15:15;;;;;;;24.97;5.77;;;;;5.60;98768.00;;;;9927960;29;20194;-80
2022/01/09 01:20:21;;;;;;;24.87;5.97;;;;;5.60;98774.00;;;;9930899;29;20202;-80
2022/01/09 01:25:23;;;;;;;24.33;3.70;;;;;5.70;98792.00;;;;9959814;29;20214;-81
2022/01/09 01:30:25;;;;;;;24.43;5.10;;;;;5.80;98817.00;;;;9886838;30;20208;-81
2022/01/09 01:35:27;;;;;;;22.87;4.40;;;;;5.80;98831.00;;;;9870367;30;20196;-80
2022/01/09 01:40:29;;;;;;;12.33;3.43;;;;;5.60;98843.00;;;;9909733;29;20640;-81
2022/01/09 01:45:30;;;;;;;8.23;3.03;;;;;5.10;98876.00;;;;9907022;29;20215;-81
2022/01/09 01:50:37;;;;;;;9.90;2.60;;;;;4.90;98899.00;;;;9922017;29;20203;-81
2022/01/09 01:55:40;;;;;;;19.87;4.47;;;;;4.90;98909.00;;;;9906473;29;20195;-80
2022/01/09 02:00:42;;;;;;;24.63;5.90;;;;;5.00;98907.00;;;;9922258;29;20206;-80
2022/01/09 02:05:46;;;;;;;23.57;4.50;;;;;5.10;98923.00;;;;9906735;29;20258;-79
2022/01/09 02:10:48;;;;;;;25.40;4.23;;;;;5.10;98934.00;;;;9883628;29;20222;-79
2022/01/09 02:15:50;;;;;;;22.23;5.23;;;;;5.10;98952.00;;;;9918683;29;20664;-79
2022/01/09 02:20:52;;;;;;;25.37;5.40;;;;;5.20;98960.00;;;;9921137;29;20260;-78
2022/01/09 02:25:54;;;;;;;16.03;3.43;;;;;5.20;98964.00;;;;9905617;29;20261;-80
2022/01/09 02:30:56;;;;;;;14.43;3.73;;;;;5.20;98986.00;;;;9905149;29;20205;-79
2022/01/09 02:35:58;;;;;;;20.23;5.17;;;;;5.20;98998.00;;;;9904442;29;20229;-79
2022/01/09 02:41:01;;;;;;;24.53;4.97;;;;;5.30;99004.00;;;;9881977;29;20212;-77
2022/01/09 02:46:15;;;;;;;11.83;3.17;;;;;5.20;99017.00;;;;9903792;29;20340;-78
2022/01/09 02:51:18;;;;;;;18.00;3.90;;;;;5.20;99039.00;;;;9882467;30;20274;-77
2022/01/09 02:56:25;;;;;;;13.00;2.93;;;;;5.20;99051.00;;;;9882014;30;20664;-78
2022/01/09 03:01:27;;;;;;;16.63;3.43;;;;;5.30;99057.00;;;;9899535;29;20226;-78
2022/01/09 03:06:29;;;;;;;11.00;2.63;;;;;5.20;99065.00;;;;9890355;29;20232;-77
2022/01/09 03:11:32;;;;;;;15.83;3.47;;;;;5.20;99078.00;;;;9943676;29;20211;-78
2022/01/09 03:16:34;;;;;;;16.10;3.47;;;;;5.10;99086.00;;;;9889568;29;20203;-78
2022/01/09 03:21:36;;;;;;;10.53;2.37;;;;;5.00;99090.00;;;;9918681;29;20678;-77
2022/01/09 03:26:39;;;;;;;13.83;2.90;;;;;5.00;99114.00;;;;9902651;29;20223;-77
2022/01/09 03:31:41;;;;;;;13.73;2.93;;;;;4.90;99119.00;;;;9904201;29;20240;-78
2022/01/09 03:36:43;;;;;;;13.40;2.70;;;;;4.90;99109.00;;;;9903266;29;20180;-78
2022/01/09 03:41:45;;;;;;;7.87;2.47;;;;;4.90;99136.00;;;;9918101;29;20211;-78
2022/01/09 03:46:47;;;;;;;19.73;3.10;;;;;4.90;99135.00;;;;9903474;29;20223;-78
2022/01/09 03:51:53;;;;;;;9.97;2.67;;;;;4.80;99148.00;;;;9888046;29;20590;-78
2022/01/09 03:56:55;;;;;;;12.70;2.90;;;;;4.70;99171.00;;;;9888753;29;20216;-79
2022/01/09 04:01:57;;;;;;;13.57;2.73;;;;;4.70;99185.00;;;;9887244;29;20206;-78
2022/01/09 04:06:59;;;;;;;14.90;3.27;;;;;4.60;99192.00;;;;9902475;29;20291;-78
2022/01/09 04:12:03;;;;;;;16.30;4.03;;;;;4.70;99202.00;;;;9887828;29;20233;-78
2022/01/09 04:17:08;;;;;;;14.63;3.00;;;;;4.70;99203.00;;;;9902235;29;20203;-77
2022/01/09 04:22:10;;;;;;;16.07;2.67;;;;;4.60;99215.00;;;;9902143;29;20207;-77
2022/01/09 04:27:13;;;;;;;11.83;2.20;;;;;4.60;99218.00;;;;9917341;29;20564;-78
2022/01/09 04:32:15;;;;;;;11.13;2.33;;;;;4.60;99226.00;;;;9902637;29;20211;-78
2022/01/09 04:37:18;;;;;;;12.30;2.57;;;;;4.60;99247.00;;;;9916978;29;20280;-77
2022/01/09 04:42:24;;;;;;;11.47;2.93;;;;;4.60;99248.00;;;;9916536;29;20215;-78
2022/01/09 04:47:26;;;;;;;13.87;3.23;;;;;4.60;99256.00;;;;9902735;29;20219;-79
2022/01/09 04:52:33;;;;;;;7.70;1.93;;;;;4.60;99268.00;;;;9916212;29;20213;-78
2022/01/09 04:57:35;;;;;;;12.17;2.37;;;;;4.50;99283.00;;;;9901561;29;20240;-78
2022/01/09 05:02:37;;;;;;;20.13;2.40;;;;;4.60;99294.00;;;;9916402;29;20260;-79
2022/01/09 05:07:40;;;;;;;15.33;3.40;;;;;4.60;99279.00;;;;9912673;29;20246;-78
2022/01/09 05:12:41;;;;;;;9.50;3.13;;;;;4.60;99289.00;;;;9878952;30;20208;-79
2022/01/09 05:17:43;;;;;;;13.13;2.33;;;;;4.50;99310.00;;;;9893889;30;20188;-79
2022/01/09 05:22:45;;;;;;;14.60;3.13;;;;;4.50;99318.00;;;;9893488;30;20207;-81
2022/01/09 05:27:49;;;;;;;15.73;2.77;;;;;4.50;99330.00;;;;9880849;29;20236;-79
2022/01/09 05:32:51;;;;;;;14.70;2.50;;;;;4.50;99332.00;;;;9885524;30;20207;-78
2022/01/09 05:37:53;;;;;;;8.80;2.00;;;;;4.50;99342.00;;;;9890302;29;20218;-78
2022/01/09 05:42:55;;;;;;;14.93;2.43;;;;;4.40;99349.00;;;;9908768;29;20572;-78
2022/01/09 05:47:59;;;;;;;12.53;2.63;;;;;4.40;99341.00;;;;9908208;29;20203;-78
2022/01/09 05:53:01;;;;;;;13.77;3.50;;;;;4.40;99347.00;;;;9908097;29;20259;-78
2022/01/09 05:58:03;;;;;;;11.10;2.43;;;;;4.50;99345.00;;;;9892728;29;20263;-78
2022/01/09 06:03:05;;;;;;;9.27;3.03;;;;;4.40;99354.00;;;;9907949;29;20252;-78
2022/01/09 06:08:09;;;;;;;9.60;2.63;;;;;4.30;99364.00;;;;9906954;29;20753;-77
2022/01/09 06:13:11;;;;;;;10.20;2.43;;;;;4.30;99363.00;;;;9921591;29;20195;-77
2022/01/09 06:18:12;;;;;;;13.20;3.47;;;;;4.30;99370.00;;;;9906830;29;20580;-77
2022/01/09 06:23:19;;;;;;;11.40;2.63;;;;;4.30;99374.00;;;;9906176;29;20223;-78
2022/01/09 06:28:21;;;;;;;14.77;3.33;;;;;4.30;99390.00;;;;9926743;29;20202;-77
2022/01/09 06:33:23;;;;;;;12.63;2.87;;;;;4.30;99395.00;;;;9942940;29;20247;-77
2022/01/09 06:38:25;;;;;;;7.17;2.07;;;;;4.20;99400.00;;;;9925669;29;20245;-78
2022/01/09 06:43:27;;;;;;;8.87;2.63;;;;;4.10;99397.00;;;;9890877;29;20251;-77
2022/01/09 06:48:28;;;;;;;13.90;2.90;;;;;4.00;99391.00;;;;9898067;29;20578;-78
2022/01/09 06:53:30;;;;;;;17.33;3.83;;;;;3.90;99395.00;;;;9904959;29;20206;-78
2022/01/09 06:58:33;;;;;;;12.07;2.57;;;;;3.80;99412.00;;;;9920319;29;20233;-79
2022/01/09 07:03:35;;;;;;;12.67;3.40;;;;;3.80;99417.00;;;;9920939;29;20210;-79
2022/01/09 07:08:37;;;;;;;13.63;2.63;;;;;3.70;99422.00;;;;9902933;29;20266;-80
2022/01/09 07:13:39;;;;;;;14.30;2.63;;;;;3.70;99428.00;;;;9918646;29;20203;-79
2022/01/09 07:18:40;;;;;;;17.90;3.43;;;;;3.70;99425.00;;;;9904551;29;20215;-79
2022/01/09 07:23:42;;;;;;;12.17;2.73;;;;;3.70;99443.00;;;;9889536;29;20214;-78
2022/01/09 07:28:44;;;;;;;13.50;2.07;;;;;3.70;99459.00;;;;9919026;29;20203;-78
2022/01/09 07:33:46;;;;;;;8.97;2.90;;;;;3.80;99474.00;;;;9903665;29;20206;-78
2022/01/09 07:38:48;;;;;;;12.80;2.70;;;;;3.90;99483.00;;;;9904102;29;20207;-78
2022/01/09 07:43:50;;;;;;;9.90;2.30;;;;;3.90;99491.00;;;;9888550;29;20285;-78
2022/01/09 07:48:52;;;;;;;15.73;3.17;;;;;4.00;99501.00;;;;9888844;29;20766;-78
2022/01/09 07:53:54;;;;;;;13.77;2.47;;;;;4.00;99509.00;;;;9888230;29;20275;-78
2022/01/09 07:58:55;;;;;;;11.00;3.20;;;;;4.10;99503.00;;;;9866158;30;20207;-78
2022/01/09 08:03:57;;;;;;;16.33;2.93;;;;;4.10;99526.00;;;;9880341;30;20724;-78
2022/01/09 08:08:59;;;;;;;13.00;2.87;;;;;4.20;99531.00;;;;9878812;29;20666;-78
2022/01/09 08:14:02;;;;;;;9.43;2.80;;;;;4.30;99540.00;;;;9888480;29;20631;-78
2022/01/09 08:19:04;;;;;;;11.70;2.37;;;;;4.40;99551.00;;;;9887953;29;20203;-78
2022/01/09 08:24:06;;;;;;;19.97;3.30;;;;;4.40;99557.00;;;;9902114;29;20277;-80
2022/01/09 08:29:08;;;;;;;9.13;3.17;;;;;4.30;99572.00;;;;9865198;30;20215;-79
2022/01/09 08:34:11;;;;;;;15.97;2.90;;;;;4.30;99573.00;;;;9865681;30;20210;-80
2022/01/09 08:39:13;;;;;;;13.63;2.67;;;;;4.30;99581.00;;;;9865202;29;20245;-80
2022/01/09 08:44:15;;;;;;;15.00;2.17;;;;;4.40;99572.00;;;;9879815;30;20269;-79
2022/01/09 08:49:17;;;;;;;10.73;3.00;;;;;4.40;99583.00;;;;9894415;30;20203;-79
2022/01/09 08:54:19;;;;;;;13.97;3.17;;;;;4.80;99589.00;;;;9879673;30;20273;-80
2022/01/09 08:59:21;;;;;;;14.70;2.67;;;;;5.00;99596.00;;;;9894947;29;20206;-79
2022/01/09 09:04:24;;;;;;;10.77;2.30;;;;;5.00;99604.00;;;;9959296;29;20222;-79
2022/01/09 09:09:26;;;;;;;13.80;3.60;;;;;5.00;99605.00;;;;9960772;29;20230;-79
2022/01/09 09:14:28;;;;;;;10.20;2.90;;;;;5.00;99613.00;;;;9901187;29;20679;-78
2022/01/09 09:19:30;;;;;;;21.97;2.87;;;;;5.10;99607.00;;;;9908927;29;20215;-78
2022/01/09 09:24:32;;;;;;;12.00;2.50;;;;;5.10;99622.00;;;;9892998;29;20772;-78
2022/01/09 09:29:34;;;;;;;12.83;2.70;;;;;5.60;99620.00;;;;9893754;29;20210;-78
2022/01/09 09:34:39;;;;;;;9.63;2.40;;;;;5.70;99641.00;;;;9893533;29;20199;-78
2022/01/09 09:39:41;;;;;;;19.03;4.20;;;;;6.00;99639.00;;;;9907403;29;20203;-78
2022/01/09 09:44:43;;;;;;;16.80;2.90;;;;;6.10;99645.00;;;;9892750;29;20271;-78
2022/01/09 09:49:47;;;;;;;13.67;2.80;;;;;6.40;99653.00;;;;9907869;29;20248;-78
2022/01/09 09:54:51;;;;;;;10.47;2.57;;;;;6.30;99665.00;;;;9907643;29;20203;-78
2022/01/09 10:00:17;;;;;;;12.63;3.50;;;;;6.60;99649.00;;;;9892923;29;20264;-77
2022/01/09 10:05:25;;;;;;;15.23;2.90;;;;;6.50;99669.00;;;;9892220;29;20223;-77
2022/01/09 10:10:32;;;;;;;10.57;2.53;;;;;6.20;99683.00;;;;9891849;29;20243;-77
2022/01/09 10:15:52;;;;;;;8.60;2.67;;;;;6.10;99689.00;;;;9891963;29;20199;-77
2022/01/09 10:21:09;;;;;;;13.97;2.63;;;;;6.70;99675.00;;;;9920951;29;20202;-78
2022/01/09 10:26:12;;;;;;;14.50;2.90;;;;;7.60;99681.00;;;;9902519;29;20207;-77
2022/01/09 10:31:16;;;;;;;12.77;2.93;;;;;6.90;99681.00;;;;9884732;30;20249;-78
2022/01/09 10:36:34;;;;;;;11.90;2.60;;;;;7.10;99679.00;;;;9898666;30;20195;-77
2022/01/09 10:41:49;;;;;;;13.77;2.63;;;;;6.80;99682.00;;;;9930980;29;20239;-77
2022/01/09 10:46:53;;;;;;;13.90;2.63;;;;;6.40;99677.00;;;;9905660;29;20221;-77
2022/01/09 10:52:28;;;;;;;12.03;3.07;;;;;7.20;99686.00;;;;9905934;29;20260;-77
2022/01/09 10:57:37;;;;;;;14.50;2.20;;;;;7.70;99669.00;;;;9904462;29;20198;-77
2022/01/09 11:02:40;;;;;;;9.70;2.53;;;;;7.90;99675.00;;;;9952919;29;20230;-78
2022/01/09 11:07:43;;;;;;;9.83;2.63;;;;;8.10;99689.00;;;;9938115;29;20273;-77
2022/01/09 11:12:48;;;;;;;17.53;3.73;;;;;8.30;99678.00;;;;9919987;29;20203;-78
2022/01/09 11:17:50;;;;;;;11.90;2.63;;;;;8.10;99690.00;;;;9934618;29;20210;-77
2022/01/09 11:22:58;;;;;;;18.13;3.60;;;;;8.50;99693.00;;;;9935119;29;20195;-78
2022/01/09 11:28:23;;;;;;;6.70;2.43;;;;;8.90;99695.00;;;;9903867;29;20350;-78
2022/01/09 11:33:50;;;;;;;10.57;3.17;;;;;8.90;99697.00;;;;9904531;29;20208;-77
2022/01/09 11:39:02;;;;;;;12.00;3.43;;;;;9.10;99709.00;;;;9917683;29;20206;-77
2022/01/09 11:44:08;;;;;;;10.77;3.03;;;;;8.90;99708.00;;;;9902234;29;20225;-78
2022/01/09 11:49:10;;;;;;;18.23;3.37;;;;;8.70;99705.00;;;;9918864;29;20207;-78
2022/01/09 11:54:17;;;;;;;11.20;3.10;;;;;8.70;99704.00;;;;9918197;29;20252;-77
2022/01/09 11:59:28;;;;;;;9.70;2.83;;;;;8.80;99719.00;;;;9917776;29;20549;-78
2022/01/09 12:04:35;;;;;;;13.57;2.70;;;;;8.20;99719.00;;;;9903335;29;20227;-78
2022/01/09 12:09:51;;;;;;;12.17;2.43;;;;;8.00;99720.00;;;;9902813;29;20330;-78
2022/01/09 12:14:54;;;;;;;11.43;2.77;;;;;8.60;99730.00;;;;9918660;29;20194;-77
2022/01/09 12:20:12;;;;;;;7.73;2.43;;;;;8.20;99737.00;;;;9888867;29;20207;-78
2022/01/09 12:25:32;;;;;;;14.63;2.77;;;;;7.80;99745.00;;;;9902962;29;20222;-78
2022/01/09 12:35:45;;;;;;;10.40;3.33;;;;;7.60;99757.00;;;;9904027;29;20195;-77
2022/01/09 12:40:55;;;;;;;8.07;3.13;;;;;7.90;99760.00;;;;9897850;30;20218;-77
2022/01/09 12:45:57;;;;;;;15.73;3.33;;;;;7.70;99757.00;;;;9878177;29;20218;-77
2022/01/09 12:51:12;;;;;;;13.70;3.17;;;;;7.30;99761.00;;;;9930155;29;20203;-77
2022/01/09 12:56:16;;;;;;;13.57;3.00;;;;;7.10;99759.00;;;;9914576;29;20199;-78
2022/01/09 13:01:25;;;;;;;12.53;2.77;;;;;7.10;99766.00;;;;9951812;29;20205;-77
2022/01/09 13:06:30;;;;;;;13.97;3.23;;;;;7.30;99760.00;;;;9939597;29;20239;-77
2022/01/09 13:11:33;;;;;;;18.47;2.73;;;;;7.50;99762.00;;;;9909573;29;20240;-77
2022/01/09 13:16:35;;;;;;;16.70;2.90;;;;;7.00;99771.00;;;;9899926;29;20661;-79
2022/01/09 13:21:44;;;;;;;12.87;2.90;;;;;7.40;99761.00;;;;9914189;29;20203;-77
2022/01/09 13:26:51;;;;;;;12.07;3.23;;;;;7.60;99768.00;;;;9928726;29;20211;-77
2022/01/09 13:32:02;;;;;;;13.87;3.70;;;;;7.80;99778.00;;;;9900204;29;20248;-77
2022/01/09 13:37:16;;;;;;;9.00;2.57;;;;;7.70;99776.00;;;;9913492;29;20548;-77
2022/01/09 13:42:25;;;;;;;8.23;3.20;;;;;8.10;99764.00;;;;9908852;29;20256;-77
2022/01/09 13:47:27;;;;;;;10.37;2.50;;;;;7.70;99780.00;;;;9911813;29;20223;-77
2022/01/09 13:52:33;;;;;;;14.93;3.50;;;;;7.40;99796.00;;;;9922867;29;20726;-77
2022/01/09 13:58:09;;;;;;;9.37;2.57;;;;;6.90;99802.00;;;;9908012;29;20184;-77
2022/01/09 14:03:11;;;;;;;10.50;2.70;;;;;6.60;99805.00;;;;9895341;29;20263;-77
2022/01/09 14:08:14;;;;;;;9.67;2.37;;;;;6.40;99803.00;;;;9922388;29;20326;-77
2022/01/09 14:13:25;;;;;;;7.57;2.43;;;;;6.40;99825.00;;;;9892751;29;20198;-77
2022/01/09 14:18:29;;;;;;;11.07;3.17;;;;;6.20;99827.00;;;;9870099;30;20200;-79
2022/01/09 14:23:33;;;;;;;11.17;2.40;;;;;6.00;99821.00;;;;9870569;30;20211;-79
2022/01/09 14:28:36;;;;;;;9.27;2.20;;;;;5.90;99828.00;;;;9870288;30;20649;-78
2022/01/09 14:33:40;;;;;;;7.10;1.90;;;;;5.80;99826.00;;;;9899598;30;20226;-79
2022/01/09 14:38:55;;;;;;;5.87;1.77;;;;;5.60;99825.00;;;;9884036;30;20199;-78
2022/01/09 14:43:58;;;;;;;12.13;2.60;;;;;5.60;99840.00;;;;9898314;30;20248;-79
2022/01/09 14:49:05;;;;;;;10.30;3.30;;;;;5.40;99847.00;;;;9868402;30;20231;-77
2022/01/09 14:54:07;;;;;;;7.97;2.47;;;;;5.40;99851.00;;;;9898323;30;20207;-79
2022/01/09 14:59:09;;;;;;;11.17;3.03;;;;;5.30;99855.00;;;;9880037;29;20624;-80
2022/01/09 15:04:11;;;;;;;15.40;3.60;;;;;5.10;99858.00;;;;9957427;29;20247;-81
2022/01/09 15:09:13;;;;;;;15.03;3.97;;;;;5.00;99867.00;;;;9926807;29;20239;-79
2022/01/09 15:14:15;;;;;;;15.77;4.03;;;;;4.90;99879.00;;;;9891324;29;20203;-80
2022/01/09 15:19:20;;;;;;;12.40;4.73;;;;;4.90;99888.00;;;;9890922;29;20264;-79
2022/01/09 15:24:22;;;;;;;16.30;4.70;;;;;4.80;99886.00;;;;9919870;29;20211;-79
2022/01/09 15:29:24;;;;;;;11.57;4.27;;;;;4.70;99884.00;;;;9904763;29;20207;-80
2022/01/09 15:34:26;;;;;;;9.50;4.80;;;;;4.80;99899.00;;;;9905018;29;20567;-79
2022/01/09 15:39:29;;;;;;;14.20;5.33;;;;;4.80;99897.00;;;;9903249;29;20210;-80
2022/01/09 15:44:31;;;;;;;11.00;6.30;;;;;4.70;99903.00;;;;9904559;29;20203;-80
2022/01/09 15:49:33;;;;;;;19.33;6.43;;;;;4.70;99902.00;;;;9867052;30;20260;-80
2022/01/09 15:54:34;;;;;;;15.53;6.80;;;;;4.60;99916.00;;;;9881853;30;20199;-80
2022/01/09 15:59:36;;;;;;;19.20;6.77;;;;;4.50;99913.00;;;;9880900;30;20208;-80
2022/01/09 16:04:39;;;;;;;16.03;6.40;;;;;4.40;99909.00;;;;9880776;30;20253;-80
2022/01/09 16:09:41;;;;;;;18.07;6.63;;;;;4.30;99912.00;;;;9867010;30;20240;-80
2022/01/09 16:14:43;;;;;;;12.03;6.83;;;;;4.10;99912.00;;;;9852508;30;20196;-80
2022/01/09 16:19:50;;;;;;;21.27;7.67;;;;;3.90;99917.00;;;;9865199;30;20200;-80
2022/01/09 16:24:53;;;;;;;14.80;8.53;;;;;3.70;99925.00;;;;9899568;29;20232;-80
2022/01/09 16:30:02;;;;;;;18.63;7.70;;;;;3.60;99933.00;;;;9949096;29;20739;-80
2022/01/09 16:35:05;;;;;;;15.53;7.10;;;;;3.50;99931.00;;;;9939483;29;20202;-80
2022/01/09 16:40:08;;;;;;;17.00;8.67;;;;;3.50;99942.00;;;;9939076;29;20236;-80
2022/01/09 16:45:09;;;;;;;18.57;7.63;;;;;3.50;99947.00;;;;9939308;29;20267;-80
2022/01/09 16:50:11;;;;;;;15.10;8.80;;;;;3.50;99957.00;;;;9924446;29;20203;-80
2022/01/09 16:55:13;;;;;;;23.23;7.70;;;;;3.40;99954.00;;;;9923652;29;20195;-81
2022/01/09 17:00:18;;;;;;;19.47;7.23;;;;;3.30;99971.00;;;;9939542;29;20251;-80
2022/01/09 17:05:20;;;;;;;15.10;7.50;;;;;3.40;99970.00;;;;9939480;29;20218;-80
2022/01/09 17:10:22;;;;;;;18.53;7.97;;;;;3.50;99998.00;;;;9894499;29;20251;-79
2022/01/09 17:15:23;;;;;;;17.97;7.17;;;;;3.60;100002.00;;;;9909008;30;20218;-79
2022/01/09 17:20:27;;;;;;;19.97;7.43;;;;;3.60;100013.00;;;;9864748;30;20260;-80
2022/01/09 17:25:29;;;;;;;16.80;6.67;;;;;3.60;100013.00;;;;9883292;30;20212;-77
2022/01/09 17:30:31;;;;;;;20.70;7.40;;;;;3.60;100021.00;;;;9886713;30;20207;-79
2022/01/09 17:35:33;;;;;;;15.07;7.10;;;;;3.60;100024.00;;;;9914822;29;20265;-79
2022/01/09 17:40:36;;;;;;;18.73;6.87;;;;;3.40;100026.00;;;;9889937;29;20195;-80
2022/01/09 17:45:39;;;;;;;18.50;7.60;;;;;3.30;100039.00;;;;9906800;29;20236;-79
2022/01/09 17:50:41;;;;;;;26.43;7.63;;;;;3.20;100034.00;;;;9906693;29;20210;-79
2022/01/09 17:55:43;;;;;;;14.90;7.07;;;;;3.10;100046.00;;;;9921434;29;20215;-79
2022/01/09 18:00:44;;;;;;;17.17;8.03;;;;;3.00;100053.00;;;;9911302;29;20201;-79
2022/01/09 18:05:47;;;;;;;17.20;6.70;;;;;2.80;100066.00;;;;9916548;29;20525;-79
2022/01/09 18:10:48;;;;;;;16.60;8.07;;;;;2.80;100061.00;;;;9935189;29;20540;-79
2022/01/09 18:15:52;;;;;;;17.67;8.30;;;;;2.70;100068.00;;;;9892039;29;20632;-79
2022/01/09 18:20:53;;;;;;;25.07;8.63;;;;;2.60;100080.00;;;;9905059;29;20207;-80
2022/01/09 18:25:56;;;;;;;21.90;8.33;;;;;2.60;100102.00;;;;9891615;29;20223;-80
2022/01/09 18:30:58;;;;;;;18.47;7.03;;;;;2.40;100118.00;;;;9905340;29;20203;-79
2022/01/09 18:36:02;;;;;;;20.10;8.00;;;;;2.30;100104.00;;;;9915458;29;20214;-79
2022/01/09 18:41:04;;;;;;;21.00;7.70;;;;;2.30;100113.00;;;;9889637;30;20215;-79
2022/01/09 18:46:06;;;;;;;17.97;6.70;;;;;2.20;100122.00;;;;9867362;30;20220;-79
2022/01/09 18:51:08;;;;;;;14.93;7.10;;;;;2.10;100120.00;;;;9882021;30;20208;-79
2022/01/09 18:56:13;;;;;;;21.47;7.70;;;;;2.10;100131.00;;;;9882539;30;20196;-79
2022/01/09 19:01:17;;;;;;;17.90;6.73;;;;;2.10;100134.00;;;;9881045;30;20188;-80
2022/01/09 19:06:19;;;;;;;18.13;6.60;;;;;2.00;100130.00;;;;9884168;29;20296;-80
2022/01/09 19:11:34;;;;;;;21.20;7.73;;;;;2.00;100155.00;;;;9917740;29;20211;-79
2022/01/09 19:17:10;;;;;;;18.30;8.00;;;;;1.90;100144.00;;;;9907873;29;20199;-80
2022/01/09 19:22:47;;;;;;;21.77;8.23;;;;;1.80;100157.00;;;;9897452;29;20214;-79
2022/01/09 19:28:22;;;;;;;27.30;9.37;;;;;1.70;100183.00;;;;9912578;29;20206;-80
2022/01/09 19:34:00;;;;;;;20.13;9.80;;;;;1.60;100188.00;;;;9892108;29;20206;-80
2022/01/09 19:39:35;;;;;;;28.10;12.33;;;;;1.50;100191.00;;;;9902501;29;20195;-80
2022/01/09 19:44:58;;;;;;;23.90;13.23;;;;;1.50;100203.00;;;;9873880;29;20302;-79
2022/01/09 19:50:00;;;;;;;29.17;14.37;;;;;1.50;100211.00;;;;9867239;30;20680;-79
2022/01/09 19:55:04;;;;;;;26.07;13.37;;;;;1.40;100210.00;;;;9882801;30;20204;-79
2022/01/09 20:00:07;;;;;;;34.50;13.67;;;;;1.50;100219.00;;;;9900125;29;20268;-79
2022/01/09 20:05:09;;;;;;;20.57;11.97;;;;;1.50;100220.00;;;;9907394;29;20187;-79
2022/01/09 20:10:12;;;;;;;18.13;10.87;;;;;1.40;100225.00;;;;9890148;29;20715;-79
2022/01/09 20:15:15;;;;;;;28.00;13.73;;;;;1.30;100231.00;;;;9904550;29;20225;-79
2022/01/09 20:20:21;;;;;;;35.80;14.77;;;;;1.30;100235.00;;;;9918286;29;20202;-80
2022/01/09 20:25:24;;;;;;;35.73;13.73;;;;;1.30;100246.00;;;;9921052;29;20213;-79
2022/01/09 20:30:26;;;;;;;25.93;13.40;;;;;1.40;100258.00;;;;9902553;29;20230;-81
2022/01/09 20:35:28;;;;;;;28.10;13.43;;;;;1.30;100260.00;;;;9902670;29;20260;-80
2022/01/09 20:40:30;;;;;;;28.40;14.67;;;;;1.30;100258.00;;;;9921226;29;20206;-79
2022/01/09 20:45:32;;;;;;;35.50;15.00;;;;;1.30;100258.00;;;;9939610;29;20628;-80
2022/01/09 20:50:34;;;;;;;33.63;14.87;;;;;1.20;100256.00;;;;9922253;29;20259;-80
2022/01/09 20:55:36;;;;;;;30.60;13.87;;;;;1.30;100270.00;;;;9915024;29;20203;-80
2022/01/09 21:00:38;;;;;;;29.07;14.53;;;;;1.30;100274.00;;;;9922503;29;20207;-79
2022/01/09 21:05:56;;;;;;;33.90;15.47;;;;;1.40;100286.00;;;;9916593;29;20236;-80
2022/01/09 21:10:58;;;;;;;31.90;14.30;;;;;1.40;100292.00;;;;9910030;29;20223;-80
2022/01/09 21:16:01;;;;;;;29.17;14.83;;;;;1.50;100311.00;;;;9888527;30;20760;-79
2022/01/09 21:21:04;;;;;;;30.03;15.40;;;;;1.40;100312.00;;;;9910122;29;20305;-79
2022/01/09 21:26:07;;;;;;;29.70;16.27;;;;;1.30;100321.00;;;;9924177;29;20203;-79
2022/01/09 21:31:09;;;;;;;28.37;13.87;;;;;1.10;100326.00;;;;9924046;29;20199;-79
2022/01/09 21:36:12;;;;;;;29.80;13.03;;;;;1.10;100325.00;;;;9909405;29;20843;-79
2022/01/09 21:41:15;;;;;;;32.17;14.67;;;;;1.10;100338.00;;;;9923254;29;20675;-79
2022/01/09 21:46:17;;;;;;;27.27;12.27;;;;;1.10;100342.00;;;;9899840;29;20223;-80
2022/01/09 21:51:19;;;;;;;28.90;12.20;;;;;1.10;100361.00;;;;9901648;29;20278;-79
2022/01/09 21:56:21;;;;;;;26.43;12.33;;;;;1.10;100364.00;;;;9893938;29;20200;-79
2022/01/09 22:01:23;;;;;;;29.87;11.60;;;;;1.10;100374.00;;;;9908042;29;20203;-79
2022/01/09 22:06:27;;;;;;;44.87;13.00;;;;;1.10;100380.00;;;;9907985;29;20251;-80
2022/01/09 22:11:29;;;;;;;28.47;12.17;;;;;1.10;100393.00;;;;9937269;29;20195;-79
2022/01/09 22:16:31;;;;;;;26.93;11.93;;;;;1.00;100402.00;;;;9922165;29;20678;-79
2022/01/09 22:21:33;;;;;;;26.43;11.30;;;;;1.00;100404.00;;;;9906948;29;20233;-79
2022/01/09 22:26:36;;;;;;;27.33;11.83;;;;;1.00;100404.00;;;;9920885;29;20226;-81
2022/01/09 22:31:38;;;;;;;28.87;11.93;;;;;1.00;100406.00;;;;9905917;29;20687;-79
2022/01/09 22:36:40;;;;;;;30.43;12.63;;;;;0.90;100407.00;;;;9920905;29;20195;-80
2022/01/09 22:41:42;;;;;;;26.23;12.10;;;;;1.00;100418.00;;;;9898648;30;20280;-80
2022/01/09 22:46:44;;;;;;;27.00;13.90;;;;;1.00;100426.00;;;;9883125;30;20223;-80
2022/01/09 22:51:46;;;;;;;31.43;13.20;;;;;1.00;100439.00;;;;9883574;30;20203;-80
2022/01/09 22:56:49;;;;;;;27.77;12.40;;;;;0.90;100445.00;;;;9869277;30;20257;-80
2022/01/09 23:01:52;;;;;;;27.80;11.90;;;;;0.80;100446.00;;;;9882441;29;20215;-80
2022/01/09 23:06:54;;;;;;;24.00;12.33;;;;;0.70;100460.00;;;;9904504;29;20322;-80
2022/01/09 23:11:58;;;;;;;35.10;13.77;;;;;0.60;100476.00;;;;9905543;29;20206;-80
2022/01/09 23:17:00;;;;;;;24.63;12.43;;;;;0.50;100485.00;;;;9889689;29;20195;-80
2022/01/09 23:22:04;;;;;;;26.90;12.63;;;;;0.40;100493.00;;;;9889612;29;20240;-80
2022/01/09 23:27:11;;;;;;;25.10;12.00;;;;;0.40;100496.00;;;;9918122;29;20219;-79
2022/01/09 23:32:13;;;;;;;29.83;13.37;;;;;0.40;100503.00;;;;9887897;29;20272;-79
2022/01/09 23:37:27;;;;;;;30.17;13.70;;;;;0.30;100526.00;;;;9904802;29;20203;-79
2022/01/09 23:42:29;;;;;;;28.83;14.03;;;;;0.20;100529.00;;;;9880238;30;20265;-80
2022/01/09 23:47:33;;;;;;;27.37;14.03;;;;;0.20;100532.00;;;;9865674;30;20254;-79
2022/01/09 23:52:37;;;;;;;27.73;14.23;;;;;0.20;100556.00;;;;9880540;30;20261;-80
2022/01/09 23:57:39;;;;;;;29.90;13.17;;;;;0.20;100542.00;;;;9865508;30;20199;-80
